createdAt,value
2022-12-15T00:00:45.377Z,88.63
2022-12-15T00:03:52.247Z,88.70
2022-12-15T00:06:39.471Z,89.06
2022-12-15T00:09:30.723Z,89.39
2022-12-15T00:12:18.339Z,89.49
2022-12-15T00:15:05.170Z,89.78
2022-12-15T00:17:51.953Z,89.97
2022-12-15T00:20:38.610Z,89.99
2022-12-15T00:23:29.994Z,89.92
2022-12-15T00:26:18.599Z,89.70
2022-12-15T00:29:05.300Z,89.49
2022-12-15T00:31:52.213Z,89.14
2022-12-15T00:34:39.115Z,89.44
2022-12-15T00:37:25.936Z,89.35
2022-12-15T00:40:04.035Z,89.49
2022-12-15T00:42:32.874Z,89.16
2022-12-15T00:45:01.603Z,89.11
2022-12-15T00:47:33.041Z,89.15
2022-12-15T00:50:20.109Z,88.94
2022-12-15T00:53:06.884Z,88.99
2022-12-15T00:55:53.587Z,88.83
2022-12-15T00:58:40.294Z,88.43
2022-12-15T01:01:28.532Z,88.30
2022-12-15T01:04:15.724Z,88.52
2022-12-15T01:07:03.636Z,88.31
2022-12-15T01:09:50.485Z,88.61
2022-12-15T01:12:37.742Z,88.58
2022-12-15T01:15:26.344Z,88.27
2022-12-15T01:18:13.283Z,88.15
2022-12-15T01:20:41.861Z,88.09
2022-12-15T01:23:10.456Z,88.43
2022-12-15T01:25:39.706Z,88.45
2022-12-15T01:28:08.289Z,88.24
2022-12-15T01:30:36.967Z,88.15
2022-12-15T01:33:05.448Z,87.94
2022-12-15T01:35:34.248Z,87.75
2022-12-15T01:38:02.919Z,87.74
2022-12-15T01:40:46.682Z,87.91
2022-12-15T01:43:19.112Z,87.87
2022-12-15T01:46:06.248Z,88.04
2022-12-15T01:48:39.060Z,88.03
2022-12-15T01:51:13.374Z,88.02
2022-12-15T01:53:47.499Z,88.19
2022-12-15T01:56:19.712Z,88.00
2022-12-15T01:58:51.882Z,88.06
2022-12-15T02:01:19.657Z,88.14
2022-12-15T02:03:49.305Z,88.29
2022-12-15T02:06:23.469Z,88.34
2022-12-15T02:08:53.609Z,88.14
2022-12-15T02:11:48.620Z,88.23
2022-12-15T02:14:25.522Z,88.24
2022-12-15T02:17:06.811Z,88.24
2022-12-15T02:20:13.890Z,88.18
2022-12-15T02:23:02.098Z,88.08
2022-12-15T02:25:52.551Z,87.74
2022-12-15T02:28:31.986Z,87.75
2022-12-15T02:31:21.661Z,87.81
2022-12-15T02:33:57.123Z,88.15
2022-12-15T02:36:32.344Z,88.26
2022-12-15T02:39:02.050Z,88.38
2022-12-15T02:41:37.070Z,88.15
2022-12-15T02:44:13.336Z,87.99
2022-12-15T02:46:54.974Z,88.01
2022-12-15T02:49:30.699Z,88.11
2022-12-15T02:52:12.337Z,88.13
2022-12-15T02:54:57.830Z,88.06
2022-12-15T02:57:35.671Z,88.02
2022-12-15T03:00:07.111Z,87.97
2022-12-15T03:02:39.063Z,88.04
2022-12-15T03:05:10.939Z,87.90
2022-12-15T03:07:42.103Z,88.03
2022-12-15T03:12:58.245Z,88.02
2022-12-15T03:15:30.401Z,87.97
2022-12-15T03:18:03.710Z,87.85
2022-12-15T03:20:32.531Z,87.81
2022-12-15T03:23:01.603Z,87.70
2022-12-15T03:25:30.414Z,87.60
2022-12-15T03:27:59.285Z,87.67
2022-12-15T03:30:28.097Z,87.58
2022-12-15T03:32:56.730Z,87.61
2022-12-15T03:35:25.193Z,87.53
2022-12-15T03:37:53.803Z,87.32
2022-12-15T03:40:22.425Z,87.14
2022-12-15T03:42:51.002Z,87.37
2022-12-15T03:45:21.237Z,87.07
2022-12-15T03:47:50.939Z,87.11
2022-12-15T03:50:21.863Z,87.32
2022-12-15T03:52:52.107Z,86.73
2022-12-15T03:55:22.157Z,86.48
2022-12-15T03:57:51.546Z,86.87
2022-12-15T04:00:21.775Z,87.01
2022-12-15T04:02:53.002Z,87.10
2022-12-15T04:05:26.786Z,87.32
2022-12-15T04:07:56.892Z,87.20
2022-12-15T04:10:31.911Z,87.27
2022-12-15T04:13:04.359Z,86.72
2022-12-15T04:15:33.155Z,86.67
2022-12-15T04:18:02.973Z,86.86
2022-12-15T04:20:32.362Z,86.78
2022-12-15T04:23:01.166Z,86.61
2022-12-15T04:25:48.492Z,86.70
2022-12-15T04:28:35.316Z,86.72
2022-12-15T04:31:27.881Z,86.77
2022-12-15T04:34:19.061Z,86.75
2022-12-15T04:37:09.684Z,86.81
2022-12-15T04:39:58.907Z,86.90
2022-12-15T04:42:46.686Z,86.93
2022-12-15T04:45:34.774Z,87.04
2022-12-15T04:48:22.161Z,86.67
2022-12-15T04:51:08.885Z,85.87
2022-12-15T04:53:56.164Z,85.70
2022-12-15T04:56:43.027Z,86.25
2022-12-15T04:59:30.000Z,86.34
2022-12-15T05:02:16.751Z,86.30
2022-12-15T05:05:05.783Z,86.46
2022-12-15T05:07:52.638Z,86.52
2022-12-15T05:10:39.216Z,86.50
2022-12-15T05:13:27.025Z,86.68
2022-12-15T05:16:13.770Z,86.78
2022-12-15T05:19:01.883Z,86.78
2022-12-15T05:21:48.633Z,86.62
2022-12-15T05:24:35.408Z,86.66
2022-12-15T05:27:22.643Z,86.51
2022-12-15T05:30:09.404Z,86.53
2022-12-15T05:32:38.064Z,86.50
2022-12-15T05:35:07.433Z,86.26
2022-12-15T05:37:36.412Z,86.34
2022-12-15T05:40:06.634Z,86.32
2022-12-15T05:42:35.200Z,86.09
2022-12-15T05:45:04.871Z,85.99
2022-12-15T05:47:33.420Z,85.83
2022-12-15T05:50:02.056Z,86.17
2022-12-15T05:52:30.862Z,86.24
2022-12-15T05:54:59.452Z,86.29
2022-12-15T05:57:28.233Z,86.19
2022-12-15T05:59:57.141Z,86.19
2022-12-15T06:02:25.707Z,86.32
2022-12-15T06:04:54.435Z,86.48
2022-12-15T06:07:23.287Z,86.36
2022-12-15T06:09:51.935Z,86.33
2022-12-15T06:12:20.482Z,86.20
2022-12-15T06:14:49.877Z,86.11
2022-12-15T06:17:18.632Z,86.07
2022-12-15T06:19:47.158Z,86.19
2022-12-15T06:22:16.696Z,86.36
2022-12-15T06:24:45.278Z,86.24
2022-12-15T06:27:13.869Z,85.90
2022-12-15T06:29:42.741Z,85.90
2022-12-15T06:32:11.458Z,86.17
2022-12-15T06:34:40.810Z,86.12
2022-12-15T06:37:09.310Z,85.88
2022-12-15T06:39:37.914Z,85.87
2022-12-15T06:42:06.569Z,85.83
2022-12-15T06:44:35.163Z,85.95
2022-12-15T06:47:03.978Z,85.89
2022-12-15T06:49:32.713Z,86.14
2022-12-15T06:52:01.295Z,86.05
2022-12-15T06:54:29.981Z,85.98
2022-12-15T06:56:58.614Z,85.86
2022-12-15T06:59:27.259Z,85.57
2022-12-15T07:01:55.939Z,85.33
2022-12-15T07:04:24.654Z,85.46
2022-12-15T07:06:53.272Z,85.65
2022-12-15T07:09:21.872Z,85.51
2022-12-15T07:11:51.756Z,85.68
2022-12-15T07:14:20.363Z,85.81
2022-12-15T07:16:48.989Z,85.94
2022-12-15T07:19:18.991Z,85.99
2022-12-15T07:21:47.558Z,85.98
2022-12-15T07:24:16.352Z,85.95
2022-12-15T07:26:45.554Z,85.90
2022-12-15T07:29:22.868Z,86.02
2022-12-15T07:31:52.121Z,85.91
2022-12-15T07:34:21.372Z,85.86
2022-12-15T07:36:52.455Z,86.03
2022-12-15T07:39:23.895Z,85.92
2022-12-15T07:41:52.644Z,85.92
2022-12-15T07:44:21.451Z,85.97
2022-12-15T07:46:50.017Z,85.93
2022-12-15T07:49:19.605Z,85.94
2022-12-15T07:51:48.565Z,85.69
2022-12-15T07:54:17.753Z,85.59
2022-12-15T07:56:50.544Z,85.42
2022-12-15T07:59:19.058Z,85.23
2022-12-15T08:01:47.858Z,84.88
2022-12-15T08:04:16.912Z,84.65
2022-12-15T08:06:45.526Z,84.43
2022-12-15T08:09:14.427Z,84.28
2022-12-15T08:11:42.937Z,84.49
2022-12-15T08:14:16.885Z,84.71
2022-12-15T08:16:46.447Z,84.96
2022-12-15T08:19:17.072Z,84.66
2022-12-15T08:21:48.959Z,84.82
2022-12-15T08:24:18.735Z,85.01
2022-12-15T08:26:50.185Z,85.12
2022-12-15T08:32:08.266Z,84.44
2022-12-15T08:34:37.928Z,83.77
2022-12-15T08:37:06.559Z,83.66
2022-12-15T08:39:35.425Z,84.11
2022-12-15T08:42:04.290Z,83.76
2022-12-15T08:44:33.374Z,83.62
2022-12-15T08:47:02.127Z,83.78
2022-12-15T08:49:31.068Z,83.91
2022-12-15T08:51:59.548Z,84.25
2022-12-15T08:54:28.437Z,84.35
2022-12-15T08:56:57.049Z,84.26
2022-12-15T08:59:26.133Z,84.30
2022-12-15T09:01:54.895Z,84.01
2022-12-15T09:04:23.588Z,83.93
2022-12-15T09:06:52.336Z,83.75
2022-12-15T09:09:22.159Z,83.72
2022-12-15T09:11:50.759Z,83.41
2022-12-15T09:14:25.489Z,83.06
2022-12-15T09:16:55.860Z,83.29
2022-12-15T09:19:25.053Z,83.05
2022-12-15T09:21:53.555Z,82.87
2022-12-15T09:24:32.445Z,83.18
2022-12-15T09:27:04.067Z,83.40
2022-12-15T09:29:33.509Z,83.45
2022-12-15T09:32:05.552Z,82.27
2022-12-15T09:34:57.439Z,81.53
2022-12-15T09:37:26.112Z,81.73
2022-12-15T09:39:54.720Z,82.36
2022-12-15T09:42:26.489Z,82.34
2022-12-15T09:45:01.459Z,82.62
2022-12-15T09:47:40.470Z,82.75
2022-12-15T09:50:14.030Z,82.66
2022-12-15T09:52:48.988Z,82.46
2022-12-15T09:55:21.659Z,82.33
2022-12-15T09:57:53.888Z,82.13
2022-12-15T10:00:24.975Z,81.93
2022-12-15T10:03:23.695Z,80.92
2022-12-15T10:06:21.242Z,80.94
2022-12-15T10:08:56.129Z,80.78
2022-12-15T10:11:40.186Z,81.19
2022-12-15T10:14:18.777Z,81.66
2022-12-15T10:16:55.286Z,80.83
2022-12-15T10:19:31.372Z,80.14
2022-12-15T10:22:00.286Z,80.23
2022-12-15T10:27:35.372Z,79.59
2022-12-15T10:30:08.471Z,80.10
2022-12-15T10:32:50.349Z,79.64
2022-12-15T10:35:23.077Z,79.57
2022-12-15T10:37:51.915Z,79.60
2022-12-15T10:43:41.244Z,79.69
2022-12-15T10:46:15.036Z,79.85
2022-12-15T10:48:48.725Z,79.17
2022-12-15T10:51:24.883Z,79.27
2022-12-15T10:54:03.948Z,79.25
2022-12-15T10:56:34.289Z,79.03
2022-12-15T10:59:22.028Z,78.34
2022-12-15T11:01:52.309Z,78.37
2022-12-15T11:04:29.441Z,78.42
2022-12-15T11:06:59.933Z,78.73
2022-12-15T11:09:32.972Z,78.40
2022-12-15T11:12:21.155Z,78.37
2022-12-15T11:14:51.392Z,78.76
2022-12-15T11:17:21.540Z,78.36
2022-12-15T11:20:01.642Z,77.83
2022-12-15T11:22:44.118Z,78.01
2022-12-15T11:25:33.252Z,77.97
2022-12-15T11:28:11.031Z,77.87
2022-12-15T11:30:45.408Z,77.92
2022-12-15T11:33:14.354Z,78.51
2022-12-15T11:35:56.423Z,78.88
2022-12-15T11:38:35.548Z,78.74
2022-12-15T11:41:13.737Z,78.54
2022-12-15T11:44:06.225Z,78.44
2022-12-15T11:46:42.184Z,78.47
2022-12-15T11:52:33.894Z,78.41
2022-12-15T11:55:12.549Z,78.35
2022-12-15T11:58:05.709Z,78.20
2022-12-15T12:00:41.552Z,78.08
2022-12-15T12:03:26.118Z,77.99
2022-12-15T12:06:15.516Z,77.83
2022-12-15T12:09:03.605Z,77.75
2022-12-15T12:11:40.198Z,77.31
2022-12-15T12:14:19.834Z,77.39
2022-12-15T12:16:56.485Z,77.23
2022-12-15T12:19:31.681Z,77.31
2022-12-15T12:22:06.389Z,77.14
2022-12-15T12:24:43.624Z,76.90
2022-12-15T12:27:18.760Z,76.60
2022-12-15T12:29:50.803Z,76.69
2022-12-15T12:32:29.957Z,76.59
2022-12-15T12:35:31.053Z,75.74
2022-12-15T12:38:04.061Z,75.48
2022-12-15T12:40:44.970Z,74.82
2022-12-15T12:43:31.598Z,75.06
2022-12-15T12:46:05.761Z,75.13
2022-12-15T12:48:38.342Z,75.95
2022-12-15T12:51:23.132Z,76.12
2022-12-15T12:53:52.446Z,76.10
2022-12-15T12:56:33.676Z,76.15
2022-12-15T12:59:08.109Z,76.18
2022-12-15T13:01:37.831Z,75.74
2022-12-15T13:04:10.223Z,75.32
2022-12-15T13:07:06.827Z,75.15
2022-12-15T13:09:41.797Z,75.69
2022-12-15T13:15:39.282Z,75.58
2022-12-15T13:18:15.152Z,75.80
2022-12-15T13:20:48.799Z,75.21
2022-12-15T13:23:36.389Z,75.29
2022-12-15T13:26:18.038Z,75.02
2022-12-15T13:28:50.689Z,75.06
2022-12-15T13:31:32.100Z,75.06
2022-12-15T13:34:28.315Z,75.27
2022-12-15T13:37:01.387Z,75.23
2022-12-15T13:39:57.667Z,75.09
2022-12-15T13:42:51.248Z,75.41
2022-12-15T13:45:41.954Z,75.07
2022-12-15T13:48:21.285Z,74.94
2022-12-15T13:50:56.009Z,75.23
2022-12-15T13:53:27.617Z,75.52
2022-12-15T13:56:06.159Z,75.85
2022-12-15T13:58:43.398Z,76.13
2022-12-15T14:04:15.075Z,76.18
2022-12-15T14:06:50.691Z,76.39
2022-12-15T14:09:24.328Z,76.64
2022-12-15T14:11:54.331Z,76.91
2022-12-15T14:14:27.046Z,76.79
2022-12-15T14:17:01.587Z,76.74
2022-12-15T14:19:39.822Z,76.75
2022-12-15T14:22:27.150Z,76.45
2022-12-15T14:25:03.404Z,76.50
2022-12-15T14:27:33.032Z,76.95
2022-12-15T14:30:21.684Z,77.21
2022-12-15T14:32:54.075Z,77.16
2022-12-15T14:35:29.212Z,76.64
2022-12-15T14:38:00.431Z,77.08
2022-12-15T14:40:29.732Z,76.99
2022-12-15T14:42:58.472Z,77.05
2022-12-15T14:45:31.149Z,77.33
2022-12-15T14:50:54.842Z,78.20
2022-12-15T14:53:25.348Z,78.01
2022-12-15T14:55:54.198Z,78.06
2022-12-15T14:58:32.254Z,78.50
2022-12-15T15:01:06.649Z,78.90
2022-12-15T15:03:06.720Z,79.66
2022-12-15T15:03:07.366Z,75.22
2022-12-15T15:03:09.223Z,78.48
2022-12-15T15:03:10.065Z,77.72
2022-12-15T15:03:10.971Z,79.28
2022-12-15T15:03:37.570Z,78.99
2022-12-15T15:06:18.181Z,79.00
2022-12-15T15:08:48.866Z,79.15
2022-12-15T15:11:28.824Z,78.98
2022-12-15T15:14:00.123Z,78.82
2022-12-15T15:16:30.762Z,79.16
2022-12-15T15:19:02.747Z,79.26
2022-12-15T15:21:36.454Z,80.03
2022-12-15T15:24:22.665Z,80.56
2022-12-15T15:26:52.634Z,81.13
2022-12-15T15:29:39.754Z,80.32
2022-12-15T15:32:15.911Z,78.70
2022-12-15T15:34:46.987Z,78.50
2022-12-15T15:37:22.678Z,77.87
2022-12-15T15:39:57.055Z,77.46
2022-12-15T15:42:32.315Z,77.74
2022-12-15T15:45:01.857Z,77.60
2022-12-15T15:47:30.845Z,78.46
2022-12-15T15:50:00.449Z,79.70
2022-12-15T15:52:31.402Z,80.51
2022-12-15T15:55:00.161Z,80.86
2022-12-15T15:57:29.301Z,81.46
2022-12-15T15:59:58.133Z,82.13
2022-12-15T16:02:28.315Z,82.65
2022-12-15T16:04:57.395Z,83.15
2022-12-15T16:07:31.153Z,83.39
2022-12-15T16:09:59.871Z,83.44
2022-12-15T16:12:33.888Z,83.30
2022-12-15T16:15:02.681Z,83.10
2022-12-15T16:17:31.253Z,82.94
2022-12-15T16:20:01.529Z,83.14
2022-12-15T16:22:30.555Z,83.04
2022-12-15T16:24:59.258Z,83.11
2022-12-15T16:27:28.201Z,83.18
2022-12-15T16:29:57.451Z,82.34
2022-12-15T16:32:26.264Z,82.22
2022-12-15T16:34:54.957Z,82.44
2022-12-15T16:37:27.191Z,82.60
2022-12-15T16:39:56.174Z,82.33
2022-12-15T16:42:24.858Z,82.13
2022-12-15T16:44:53.407Z,81.99
2022-12-15T16:47:22.803Z,82.13
2022-12-15T16:49:51.425Z,81.85
2022-12-15T16:52:21.851Z,81.75
2022-12-15T16:54:50.909Z,81.97
2022-12-15T16:57:19.439Z,82.05
2022-12-15T16:59:49.276Z,81.98
2022-12-15T17:02:26.364Z,81.42
2022-12-15T17:04:55.441Z,81.14
2022-12-15T17:07:26.291Z,80.95
2022-12-15T17:09:55.484Z,80.69
2022-12-15T17:12:24.165Z,80.39
2022-12-15T17:14:53.067Z,80.67
2022-12-15T17:17:25.332Z,80.84
2022-12-15T17:22:44.211Z,79.62
2022-12-15T17:26:00.728Z,80.46
2022-12-15T17:28:19.631Z,81.35
2022-12-15T17:30:49.629Z,81.54
2022-12-15T17:33:23.122Z,81.19
2022-12-15T17:35:54.072Z,81.09
2022-12-15T17:38:23.535Z,80.87
2022-12-15T17:40:52.895Z,80.97
2022-12-15T17:43:23.628Z,81.59
2022-12-15T17:45:54.976Z,81.55
2022-12-15T17:48:27.694Z,81.61
2022-12-15T17:50:56.305Z,81.76
2022-12-15T17:53:25.763Z,81.82
2022-12-15T17:55:54.351Z,82.04
2022-12-15T17:58:27.402Z,82.17
2022-12-15T18:00:56.672Z,81.79
2022-12-15T18:03:25.377Z,81.38
2022-12-15T18:05:54.287Z,81.37
2022-12-15T18:08:25.360Z,81.43
2022-12-15T18:10:56.064Z,81.20
2022-12-15T18:13:30.328Z,81.45
2022-12-15T18:16:02.058Z,81.50
2022-12-15T18:18:31.627Z,81.20
2022-12-15T18:21:07.474Z,81.28
2022-12-15T18:23:36.726Z,81.00
2022-12-15T18:26:05.550Z,81.27
2022-12-15T18:28:35.653Z,81.02
2022-12-15T18:31:15.481Z,80.98
2022-12-15T18:33:44.900Z,81.23
2022-12-15T18:36:16.184Z,81.25
2022-12-15T18:38:45.608Z,80.53
2022-12-15T18:41:17.170Z,80.39
2022-12-15T18:43:47.779Z,80.21
2022-12-15T18:46:19.535Z,80.44
2022-12-15T18:48:48.152Z,80.71
2022-12-15T18:51:18.652Z,80.55
2022-12-15T18:53:48.182Z,80.49
2022-12-15T18:56:20.911Z,80.40
2022-12-15T18:58:50.839Z,80.35
2022-12-15T19:01:19.451Z,80.70
2022-12-15T19:03:48.115Z,80.60
2022-12-15T19:06:26.037Z,80.59
2022-12-15T19:08:54.755Z,81.15
2022-12-15T19:11:30.263Z,81.38
2022-12-15T19:14:02.810Z,81.74
2022-12-15T19:16:51.860Z,81.88
2022-12-15T19:19:38.886Z,82.07
2022-12-15T19:22:26.310Z,81.72
2022-12-15T19:24:55.011Z,81.51
2022-12-15T19:27:25.987Z,81.74
2022-12-15T19:29:56.073Z,82.10
2022-12-15T19:32:26.097Z,82.26
2022-12-15T19:34:54.707Z,82.11
2022-12-15T19:37:26.422Z,82.07
2022-12-15T19:39:57.301Z,82.01
2022-12-15T19:42:32.898Z,81.88
2022-12-15T19:45:13.784Z,82.14
2022-12-15T19:47:43.794Z,82.35
2022-12-15T19:50:16.580Z,82.31
2022-12-15T19:52:53.200Z,81.96
2022-12-15T19:55:33.088Z,82.17
2022-12-15T19:58:21.023Z,81.96
2022-12-15T20:00:52.410Z,82.00
2022-12-15T20:03:21.620Z,81.97
2022-12-15T20:05:53.222Z,81.94
2022-12-15T20:08:24.384Z,81.97
2022-12-15T20:10:54.684Z,81.88
2022-12-15T20:13:27.235Z,81.81
2022-12-15T20:15:56.088Z,82.19
2022-12-15T20:18:25.105Z,82.42
2022-12-15T20:20:55.366Z,82.40
2022-12-15T20:23:26.380Z,82.66
2022-12-15T20:25:56.020Z,82.78
2022-12-15T20:28:27.322Z,82.68
2022-12-15T20:30:58.460Z,82.47
2022-12-15T20:33:27.771Z,82.48
2022-12-15T20:35:57.368Z,82.49
2022-12-15T20:38:31.065Z,82.59
2022-12-15T20:41:03.106Z,82.58
2022-12-15T20:43:34.035Z,82.59
2022-12-15T20:46:06.669Z,82.72
2022-12-15T20:48:36.282Z,82.81
2022-12-15T20:51:09.245Z,82.60
2022-12-15T20:53:38.947Z,82.55
2022-12-15T20:56:09.427Z,82.58
2022-12-15T20:58:41.058Z,82.54
2022-12-15T21:01:19.381Z,82.68
2022-12-15T21:03:53.065Z,82.98
2022-12-15T21:06:22.911Z,83.09
2022-12-15T21:08:52.032Z,83.10
2022-12-15T21:11:24.623Z,83.06
2022-12-15T21:13:56.181Z,83.15
2022-12-15T21:16:26.764Z,83.13
2022-12-15T21:21:49.229Z,83.35
2022-12-15T21:24:25.909Z,83.32
2022-12-15T21:26:55.260Z,83.41
2022-12-15T21:29:25.721Z,83.37
2022-12-15T21:31:54.262Z,83.65
2022-12-15T21:34:23.111Z,83.70
2022-12-15T21:36:54.922Z,83.83
2022-12-15T21:39:28.617Z,83.71
2022-12-15T21:41:59.528Z,83.42
2022-12-15T21:44:28.164Z,83.51
2022-12-15T21:46:56.777Z,83.51
2022-12-15T21:49:25.770Z,83.58
2022-12-15T21:51:56.197Z,83.68
2022-12-15T21:54:30.925Z,83.81
2022-12-15T21:57:01.273Z,83.91
2022-12-15T21:59:32.091Z,84.04
2022-12-15T22:02:01.359Z,84.02
2022-12-15T22:04:54.821Z,84.15
2022-12-15T22:07:23.704Z,84.17
2022-12-15T22:09:52.390Z,84.20
2022-12-15T22:12:23.634Z,84.22
2022-12-15T22:14:52.335Z,84.16
2022-12-15T22:17:22.063Z,84.07
2022-12-15T22:19:50.862Z,83.95
2022-12-15T22:22:20.571Z,84.12
2022-12-15T22:24:49.217Z,84.34
2022-12-15T22:27:20.255Z,84.41
2022-12-15T22:29:49.610Z,84.48
2022-12-15T22:32:18.396Z,84.54
2022-12-15T22:34:46.998Z,84.54
2022-12-15T22:37:15.600Z,84.64
2022-12-15T22:39:44.248Z,84.60
2022-12-15T22:42:16.660Z,84.73
2022-12-15T22:44:45.715Z,84.70
2022-12-15T22:47:14.568Z,84.86
2022-12-15T22:49:43.247Z,84.79
2022-12-15T22:52:16.745Z,84.85
2022-12-15T22:54:46.087Z,84.71
2022-12-15T22:57:20.707Z,84.77
2022-12-15T22:59:52.743Z,84.70
2022-12-15T23:02:23.255Z,84.68
2022-12-15T23:04:51.847Z,84.54
2022-12-15T23:07:20.506Z,84.41
2022-12-15T23:10:09.222Z,84.33
2022-12-15T23:12:37.814Z,84.34
2022-12-15T23:15:29.410Z,84.37
2022-12-15T23:17:57.924Z,84.55
2022-12-15T23:20:26.723Z,84.45
2022-12-15T23:22:55.333Z,84.59
2022-12-15T23:25:23.846Z,84.68
2022-12-15T23:27:52.531Z,84.92
2022-12-15T23:30:21.236Z,84.93
2022-12-15T23:32:50.097Z,84.88
2022-12-15T23:35:23.891Z,84.99
2022-12-15T23:37:52.421Z,85.13
2022-12-15T23:40:21.466Z,85.35
2022-12-15T23:42:50.877Z,85.39
2022-12-15T23:45:20.865Z,85.40
2022-12-15T23:47:49.518Z,85.55
2022-12-15T23:50:18.666Z,85.57
2022-12-15T23:52:51.214Z,85.69
2022-12-15T23:55:20.646Z,85.68
2022-12-15T23:57:49.185Z,85.88
